sensor_id;sensor_type;location;lat;lon;timestamp;pressure;altitude;pressure_sealevel;temperature;humidity
11339;BME280;5724;42.684;23.252;2023-02-28T00:00:32;94776.47;;;6.15;100.00
11339;BME280;5724;42.684;23.252;2023-02-28T00:02:58;94780.16;;;6.10;100.00
11339;BME280;5724;42.684;23.252;2023-02-28T00:05:25;94785.56;;;6.10;100.00
11339;BME280;5724;42.684;23.252;2023-02-28T00:07:51;94783.47;;;6.07;100.00
11339;BME280;5724;42.684;23.252;2023-02-28T00:10:19;94781.09;;;6.06;100.00
11339;BME280;5724;42.684;23.252;2023-02-28T00:12:53;94785.38;;;6.07;100.00
11339;BME280;5724;42.684;23.252;2023-02-28T00:15:19;94783.66;;;6.02;100.00
11339;BME280;5724;42.684;23.252;2023-02-28T00:17:45;94794.97;;;6.04;100.00
11339;BME280;5724;42.684;23.252;2023-02-28T00:20:13;94799.44;;;6.17;100.00
11339;BME280;5724;42.684;23.252;2023-02-28T00:22:42;94794.00;;;6.35;100.00
11339;BME280;5724;42.684;23.252;2023-02-28T00:25:09;94801.81;;;6.36;100.00
11339;BME280;5724;42.684;23.252;2023-02-28T00:27:36;94810.78;;;6.28;100.00
11339;BME280;5724;42.684;23.252;2023-02-28T00:30:02;94800.09;;;6.23;100.00
11339;BME280;5724;42.684;23.252;2023-02-28T00:32:28;94799.28;;;6.22;100.00
11339;BME280;5724;42.684;23.252;2023-02-28T00:34:53;94811.59;;;6.20;100.00
11339;BME280;5724;42.684;23.252;2023-02-28T00:37:19;94807.75;;;6.21;100.00
11339;BME280;5724;42.684;23.252;2023-02-28T00:39:44;94800.88;;;6.15;100.00
11339;BME280;5724;42.684;23.252;2023-02-28T00:42:10;94811.09;;;6.26;100.00
11339;BME280;5724;42.684;23.252;2023-02-28T00:44:35;94803.91;;;6.13;100.00
11339;BME280;5724;42.684;23.252;2023-02-28T00:47:01;94796.00;;;5.68;100.00
11339;BME280;5724;42.684;23.252;2023-02-28T00:49:27;94754.53;;;5.42;100.00
11339;BME280;5724;42.684;23.252;2023-02-28T00:51:53;94802.72;;;5.62;100.00
11339;BME280;5724;42.684;23.252;2023-02-28T00:54:20;94807.13;;;5.41;100.00
11339;BME280;5724;42.684;23.252;2023-02-28T00:56:46;94804.56;;;5.36;100.00
11339;BME280;5724;42.684;23.252;2023-02-28T00:59:12;94802.25;;;5.21;100.00
11339;BME280;5724;42.684;23.252;2023-02-28T01:01:38;94801.91;;;5.05;100.00
11339;BME280;5724;42.684;23.252;2023-02-28T01:04:04;94799.00;;;4.93;100.00
11339;BME280;5724;42.684;23.252;2023-02-28T01:06:30;94790.50;;;4.85;100.00
11339;BME280;5724;42.684;23.252;2023-02-28T01:08:57;94798.53;;;4.99;100.00
11339;BME280;5724;42.684;23.252;2023-02-28T01:11:22;94793.25;;;4.94;100.00
11339;BME280;5724;42.684;23.252;2023-02-28T01:13:48;94799.53;;;4.81;100.00
11339;BME280;5724;42.684;23.252;2023-02-28T01:16:14;94801.50;;;4.89;100.00
11339;BME280;5724;42.684;23.252;2023-02-28T01:18:39;94795.50;;;5.01;100.00
11339;BME280;5724;42.684;23.252;2023-02-28T01:21:11;94785.44;;;4.93;100.00
11339;BME280;5724;42.684;23.252;2023-02-28T01:23:38;94801.56;;;4.67;100.00
11339;BME280;5724;42.684;23.252;2023-02-28T01:26:24;94796.63;;;4.69;100.00
11339;BME280;5724;42.684;23.252;2023-02-28T01:28:51;94804.16;;;4.49;100.00
11339;BME280;5724;42.684;23.252;2023-02-28T01:31:17;94813.81;;;4.42;100.00
11339;BME280;5724;42.684;23.252;2023-02-28T01:33:43;94797.47;;;4.47;100.00
11339;BME280;5724;42.684;23.252;2023-02-28T01:36:15;94798.88;;;4.44;100.00
11339;BME280;5724;42.684;23.252;2023-02-28T01:38:42;94802.44;;;4.31;100.00
11339;BME280;5724;42.684;23.252;2023-02-28T01:41:14;94806.41;;;4.34;100.00
11339;BME280;5724;42.684;23.252;2023-02-28T01:46:09;94800.13;;;4.16;100.00
11339;BME280;5724;42.684;23.252;2023-02-28T01:48:38;94810.13;;;4.15;100.00
11339;BME280;5724;42.684;23.252;2023-02-28T01:51:15;94804.44;;;4.03;100.00
11339;BME280;5724;42.684;23.252;2023-02-28T01:53:46;94804.13;;;4.05;100.00
11339;BME280;5724;42.684;23.252;2023-02-28T01:56:17;94796.22;;;4.08;100.00
11339;BME280;5724;42.684;23.252;2023-02-28T01:58:50;94814.50;;;4.25;100.00
11339;BME280;5724;42.684;23.252;2023-02-28T02:01:16;94798.94;;;4.30;100.00
11339;BME280;5724;42.684;23.252;2023-02-28T02:04:01;94804.66;;;4.29;100.00
11339;BME280;5724;42.684;23.252;2023-02-28T02:06:34;94791.38;;;4.19;100.00
11339;BME280;5724;42.684;23.252;2023-02-28T02:09:01;94810.69;;;4.26;100.00
11339;BME280;5724;42.684;23.252;2023-02-28T02:11:28;94796.13;;;4.36;100.00
11339;BME280;5724;42.684;23.252;2023-02-28T02:25:27;94799.78;;;4.40;100.00
11339;BME280;5724;42.684;23.252;2023-02-28T02:44:00;94812.91;;;4.46;100.00
11339;BME280;5724;42.684;23.252;2023-02-28T02:46:32;94819.28;;;4.28;100.00
11339;BME280;5724;42.684;23.252;2023-02-28T02:49:00;94808.22;;;4.16;100.00
11339;BME280;5724;42.684;23.252;2023-02-28T02:51:30;94805.53;;;4.16;100.00
11339;BME280;5724;42.684;23.252;2023-02-28T02:54:04;94806.59;;;4.15;100.00
11339;BME280;5724;42.684;23.252;2023-02-28T02:56:32;94809.09;;;4.25;100.00
11339;BME280;5724;42.684;23.252;2023-02-28T02:59:02;94811.97;;;4.28;100.00
11339;BME280;5724;42.684;23.252;2023-02-28T03:01:30;94806.88;;;4.27;100.00
11339;BME280;5724;42.684;23.252;2023-02-28T03:03:59;94795.69;;;4.20;100.00
11339;BME280;5724;42.684;23.252;2023-02-28T03:06:26;94818.63;;;4.45;100.00
11339;BME280;5724;42.684;23.252;2023-02-28T03:08:52;94821.00;;;4.46;100.00
11339;BME280;5724;42.684;23.252;2023-02-28T03:11:18;94811.78;;;4.47;100.00
11339;BME280;5724;42.684;23.252;2023-02-28T03:21:38;94844.75;;;4.49;100.00
11339;BME280;5724;42.684;23.252;2023-02-28T03:24:12;94837.50;;;4.36;100.00
11339;BME280;5724;42.684;23.252;2023-02-28T03:26:46;94839.38;;;4.58;100.00
11339;BME280;5724;42.684;23.252;2023-02-28T03:29:35;94843.75;;;4.68;100.00
11339;BME280;5724;42.684;23.252;2023-02-28T03:33:17;94845.81;;;4.71;100.00
11339;BME280;5724;42.684;23.252;2023-02-28T03:35:16;94849.22;;;4.76;100.00
11339;BME280;5724;42.684;23.252;2023-02-28T03:37:49;94849.00;;;4.95;100.00
11339;BME280;5724;42.684;23.252;2023-02-28T03:40:24;94832.88;;;4.90;100.00
11339;BME280;5724;42.684;23.252;2023-02-28T03:42:55;94860.00;;;4.99;100.00
11339;BME280;5724;42.684;23.252;2023-02-28T03:45:26;94856.06;;;5.05;100.00
11339;BME280;5724;42.684;23.252;2023-02-28T03:48:33;94853.56;;;5.17;100.00
11339;BME280;5724;42.684;23.252;2023-02-28T03:51:01;94851.00;;;5.12;100.00
11339;BME280;5724;42.684;23.252;2023-02-28T03:53:40;94865.63;;;5.11;100.00
11339;BME280;5724;42.684;23.252;2023-02-28T03:56:16;94864.50;;;5.03;100.00
11339;BME280;5724;42.684;23.252;2023-02-28T03:58:58;94865.63;;;5.02;100.00
11339;BME280;5724;42.684;23.252;2023-02-28T04:04:01;94855.31;;;5.13;100.00
11339;BME280;5724;42.684;23.252;2023-02-28T04:06:27;94854.31;;;5.09;100.00
11339;BME280;5724;42.684;23.252;2023-02-28T04:08:55;94867.22;;;5.03;100.00
11339;BME280;5724;42.684;23.252;2023-02-28T04:13:55;94862.13;;;4.79;100.00
11339;BME280;5724;42.684;23.252;2023-02-28T04:16:20;94857.41;;;4.40;100.00
11339;BME280;5724;42.684;23.252;2023-02-28T04:18:46;94855.81;;;4.39;100.00
11339;BME280;5724;42.684;23.252;2023-02-28T04:21:12;94866.31;;;4.41;100.00
11339;BME280;5724;42.684;23.252;2023-02-28T04:23:38;94857.38;;;4.63;100.00
11339;BME280;5724;42.684;23.252;2023-02-28T04:26:04;94860.47;;;4.70;100.00
11339;BME280;5724;42.684;23.252;2023-02-28T04:28:30;94859.91;;;4.81;100.00
11339;BME280;5724;42.684;23.252;2023-02-28T04:31:02;94864.03;;;4.79;100.00
11339;BME280;5724;42.684;23.252;2023-02-28T04:33:30;94857.81;;;4.78;100.00
11339;BME280;5724;42.684;23.252;2023-02-28T04:36:06;94863.66;;;4.72;100.00
11339;BME280;5724;42.684;23.252;2023-02-28T04:38:34;94868.66;;;4.56;100.00
11339;BME280;5724;42.684;23.252;2023-02-28T04:41:00;94861.16;;;4.30;100.00
11339;BME280;5724;42.684;23.252;2023-02-28T04:43:27;94870.19;;;4.26;100.00
11339;BME280;5724;42.684;23.252;2023-02-28T04:45:53;94878.78;;;4.28;100.00
11339;BME280;5724;42.684;23.252;2023-02-28T04:48:25;94876.81;;;4.42;100.00
11339;BME280;5724;42.684;23.252;2023-02-28T04:50:51;94881.56;;;4.37;100.00
11339;BME280;5724;42.684;23.252;2023-02-28T04:53:17;94889.84;;;4.18;100.00
11339;BME280;5724;42.684;23.252;2023-02-28T04:55:43;94884.63;;;4.21;100.00
11339;BME280;5724;42.684;23.252;2023-02-28T04:58:09;94891.22;;;4.29;100.00
11339;BME280;5724;42.684;23.252;2023-02-28T05:00:35;94890.97;;;4.39;100.00
11339;BME280;5724;42.684;23.252;2023-02-28T05:03:00;94894.00;;;4.24;100.00
11339;BME280;5724;42.684;23.252;2023-02-28T05:05:26;94872.34;;;4.38;100.00
11339;BME280;5724;42.684;23.252;2023-02-28T05:07:51;94886.38;;;4.40;100.00
11339;BME280;5724;42.684;23.252;2023-02-28T05:10:18;94888.81;;;4.27;100.00
11339;BME280;5724;42.684;23.252;2023-02-28T05:12:44;94866.72;;;4.12;100.00
11339;BME280;5724;42.684;23.252;2023-02-28T05:15:13;94889.34;;;4.16;100.00
11339;BME280;5724;42.684;23.252;2023-02-28T05:17:39;94897.72;;;4.28;100.00
11339;BME280;5724;42.684;23.252;2023-02-28T05:20:05;94897.81;;;4.23;100.00
11339;BME280;5724;42.684;23.252;2023-02-28T05:22:31;94900.22;;;4.24;100.00
11339;BME280;5724;42.684;23.252;2023-02-28T05:24:57;94901.00;;;4.39;100.00
11339;BME280;5724;42.684;23.252;2023-02-28T05:27:23;94901.56;;;4.49;100.00
11339;BME280;5724;42.684;23.252;2023-02-28T05:29:48;94903.72;;;4.61;100.00
11339;BME280;5724;42.684;23.252;2023-02-28T05:32:14;94907.09;;;4.67;100.00
11339;BME280;5724;42.684;23.252;2023-02-28T05:34:41;94915.72;;;4.69;100.00
11339;BME280;5724;42.684;23.252;2023-02-28T05:37:12;94921.81;;;4.74;100.00
11339;BME280;5724;42.684;23.252;2023-02-28T05:39:38;94919.22;;;4.92;100.00
11339;BME280;5724;42.684;23.252;2023-02-28T05:42:04;94921.38;;;5.03;100.00
11339;BME280;5724;42.684;23.252;2023-02-28T05:44:30;94926.19;;;4.84;100.00
11339;BME280;5724;42.684;23.252;2023-02-28T05:46:55;94924.34;;;4.93;100.00
11339;BME280;5724;42.684;23.252;2023-02-28T05:49:21;94917.44;;;4.87;100.00
11339;BME280;5724;42.684;23.252;2023-02-28T05:51:46;94920.72;;;4.75;100.00
11339;BME280;5724;42.684;23.252;2023-02-28T05:54:11;94928.13;;;4.70;100.00
11339;BME280;5724;42.684;23.252;2023-02-28T05:56:37;94926.59;;;4.77;100.00
11339;BME280;5724;42.684;23.252;2023-02-28T05:59:05;94925.41;;;4.92;100.00
11339;BME280;5724;42.684;23.252;2023-02-28T06:01:34;94929.78;;;5.02;100.00
11339;BME280;5724;42.684;23.252;2023-02-28T06:04:01;94933.53;;;5.14;100.00
11339;BME280;5724;42.684;23.252;2023-02-28T06:06:28;94932.28;;;5.21;100.00
11339;BME280;5724;42.684;23.252;2023-02-28T06:08:55;94926.75;;;5.26;100.00
11339;BME280;5724;42.684;23.252;2023-02-28T06:11:20;94937.22;;;5.18;100.00
11339;BME280;5724;42.684;23.252;2023-02-28T06:13:46;94932.91;;;5.17;100.00
11339;BME280;5724;42.684;23.252;2023-02-28T06:16:12;94929.34;;;5.31;100.00
11339;BME280;5724;42.684;23.252;2023-02-28T06:18:38;94937.31;;;5.36;100.00
11339;BME280;5724;42.684;23.252;2023-02-28T06:21:04;94932.69;;;5.36;100.00
11339;BME280;5724;42.684;23.252;2023-02-28T06:23:29;94937.75;;;5.29;100.00
11339;BME280;5724;42.684;23.252;2023-02-28T06:25:55;94939.41;;;5.39;100.00
11339;BME280;5724;42.684;23.252;2023-02-28T06:28:25;94935.28;;;5.41;100.00
11339;BME280;5724;42.684;23.252;2023-02-28T06:30:51;94935.94;;;5.47;100.00
11339;BME280;5724;42.684;23.252;2023-02-28T06:33:16;94942.53;;;5.55;100.00
11339;BME280;5724;42.684;23.252;2023-02-28T06:35:47;94941.28;;;5.61;100.00
11339;BME280;5724;42.684;23.252;2023-02-28T06:38:15;94938.69;;;5.56;100.00
11339;BME280;5724;42.684;23.252;2023-02-28T06:40:40;94940.75;;;5.50;100.00
11339;BME280;5724;42.684;23.252;2023-02-28T06:43:06;94951.09;;;5.48;100.00
11339;BME280;5724;42.684;23.252;2023-02-28T06:45:32;94951.66;;;5.36;100.00
11339;BME280;5724;42.684;23.252;2023-02-28T06:47:57;94948.66;;;5.38;100.00
11339;BME280;5724;42.684;23.252;2023-02-28T06:50:23;94950.13;;;5.44;100.00
11339;BME280;5724;42.684;23.252;2023-02-28T06:52:49;94953.53;;;5.58;100.00
11339;BME280;5724;42.684;23.252;2023-02-28T06:55:19;94961.50;;;5.55;100.00
11339;BME280;5724;42.684;23.252;2023-02-28T06:57:44;94962.47;;;5.59;100.00
11339;BME280;5724;42.684;23.252;2023-02-28T07:00:11;94958.81;;;5.63;100.00
11339;BME280;5724;42.684;23.252;2023-02-28T07:02:36;94955.13;;;5.59;100.00
11339;BME280;5724;42.684;23.252;2023-02-28T07:05:03;94963.78;;;5.61;100.00
11339;BME280;5724;42.684;23.252;2023-02-28T07:07:29;94955.47;;;5.66;100.00
11339;BME280;5724;42.684;23.252;2023-02-28T07:09:55;94951.66;;;5.67;100.00
11339;BME280;5724;42.684;23.252;2023-02-28T07:12:20;94952.28;;;5.64;100.00
11339;BME280;5724;42.684;23.252;2023-02-28T07:14:46;94962.16;;;5.60;100.00
11339;BME280;5724;42.684;23.252;2023-02-28T07:17:11;94954.03;;;5.60;100.00
11339;BME280;5724;42.684;23.252;2023-02-28T07:19:38;94969.31;;;5.56;100.00
11339;BME280;5724;42.684;23.252;2023-02-28T07:22:04;94966.59;;;5.56;100.00
11339;BME280;5724;42.684;23.252;2023-02-28T07:24:30;94956.66;;;5.43;100.00
11339;BME280;5724;42.684;23.252;2023-02-28T07:26:56;94965.53;;;5.35;100.00
11339;BME280;5724;42.684;23.252;2023-02-28T07:29:22;94965.78;;;5.25;100.00
11339;BME280;5724;42.684;23.252;2023-02-28T07:31:47;94967.28;;;5.31;100.00
11339;BME280;5724;42.684;23.252;2023-02-28T07:34:13;94962.78;;;5.26;100.00
11339;BME280;5724;42.684;23.252;2023-02-28T07:36:39;94965.69;;;5.38;100.00
11339;BME280;5724;42.684;23.252;2023-02-28T07:39:04;94965.78;;;5.25;100.00
11339;BME280;5724;42.684;23.252;2023-02-28T07:41:30;94961.50;;;5.24;100.00
11339;BME280;5724;42.684;23.252;2023-02-28T07:43:59;94964.75;;;5.12;100.00
11339;BME280;5724;42.684;23.252;2023-02-28T07:46:25;94953.63;;;5.13;100.00
11339;BME280;5724;42.684;23.252;2023-02-28T07:48:51;94961.91;;;5.17;100.00
11339;BME280;5724;42.684;23.252;2023-02-28T07:51:18;94962.28;;;5.24;100.00
11339;BME280;5724;42.684;23.252;2023-02-28T07:53:44;94965.84;;;5.33;100.00
11339;BME280;5724;42.684;23.252;2023-02-28T07:56:09;94953.75;;;5.39;100.00
11339;BME280;5724;42.684;23.252;2023-02-28T07:58:36;94955.22;;;5.45;100.00
11339;BME280;5724;42.684;23.252;2023-02-28T08:01:09;94957.63;;;5.47;100.00
11339;BME280;5724;42.684;23.252;2023-02-28T08:03:35;94959.63;;;5.33;100.00
11339;BME280;5724;42.684;23.252;2023-02-28T08:06:03;94951.63;;;5.28;100.00
11339;BME280;5724;42.684;23.252;2023-02-28T08:08:29;94958.53;;;5.34;100.00
11339;BME280;5724;42.684;23.252;2023-02-28T08:11:00;94952.19;;;5.47;100.00
11339;BME280;5724;42.684;23.252;2023-02-28T08:13:27;94936.75;;;5.47;100.00
11339;BME280;5724;42.684;23.252;2023-02-28T08:15:54;94953.25;;;5.68;100.00
11339;BME280;5724;42.684;23.252;2023-02-28T08:18:20;94957.91;;;5.77;100.00
11339;BME280;5724;42.684;23.252;2023-02-28T08:20:46;94960.34;;;5.87;100.00
11339;BME280;5724;42.684;23.252;2023-02-28T08:23:11;94961.66;;;5.89;100.00
11339;BME280;5724;42.684;23.252;2023-02-28T08:25:37;94958.28;;;5.84;100.00
11339;BME280;5724;42.684;23.252;2023-02-28T08:28:02;94960.34;;;5.87;100.00
11339;BME280;5724;42.684;23.252;2023-02-28T08:30:28;94969.25;;;5.79;100.00
11339;BME280;5724;42.684;23.252;2023-02-28T08:32:53;94969.88;;;5.75;100.00
11339;BME280;5724;42.684;23.252;2023-02-28T08:35:20;94977.63;;;5.60;100.00
11339;BME280;5724;42.684;23.252;2023-02-28T08:37:48;94974.09;;;5.51;100.00
11339;BME280;5724;42.684;23.252;2023-02-28T08:40:13;94972.88;;;5.65;100.00
11339;BME280;5724;42.684;23.252;2023-02-28T08:42:44;94966.41;;;5.84;100.00
11339;BME280;5724;42.684;23.252;2023-02-28T08:45:11;94964.66;;;5.79;100.00
11339;BME280;5724;42.684;23.252;2023-02-28T08:47:36;94968.44;;;5.78;100.00
11339;BME280;5724;42.684;23.252;2023-02-28T08:50:03;94961.09;;;5.70;100.00
11339;BME280;5724;42.684;23.252;2023-02-28T08:52:28;94960.97;;;5.84;100.00
11339;BME280;5724;42.684;23.252;2023-02-28T08:54:54;94965.38;;;6.02;100.00
11339;BME280;5724;42.684;23.252;2023-02-28T08:57:19;94964.13;;;6.08;100.00
11339;BME280;5724;42.684;23.252;2023-02-28T08:59:45;94973.56;;;6.11;100.00
11339;BME280;5724;42.684;23.252;2023-02-28T09:02:13;94966.38;;;6.15;100.00
11339;BME280;5724;42.684;23.252;2023-02-28T09:04:39;94959.66;;;6.12;100.00
11339;BME280;5724;42.684;23.252;2023-02-28T09:07:05;94962.31;;;5.95;100.00
11339;BME280;5724;42.684;23.252;2023-02-28T09:09:30;94969.00;;;5.89;100.00
11339;BME280;5724;42.684;23.252;2023-02-28T09:11:56;94959.72;;;5.90;100.00
11339;BME280;5724;42.684;23.252;2023-02-28T09:14:22;94958.34;;;5.92;100.00
11339;BME280;5724;42.684;23.252;2023-02-28T09:16:48;94956.75;;;5.91;100.00
11339;BME280;5724;42.684;23.252;2023-02-28T09:19:13;94960.44;;;6.04;100.00
11339;BME280;5724;42.684;23.252;2023-02-28T09:21:39;94956.59;;;6.05;100.00
11339;BME280;5724;42.684;23.252;2023-02-28T09:24:04;94959.50;;;6.17;100.00
11339;BME280;5724;42.684;23.252;2023-02-28T09:26:30;94960.50;;;6.21;100.00
11339;BME280;5724;42.684;23.252;2023-02-28T09:28:55;94962.13;;;6.40;100.00
11339;BME280;5724;42.684;23.252;2023-02-28T09:31:26;94958.94;;;6.55;100.00
11339;BME280;5724;42.684;23.252;2023-02-28T09:33:54;94954.78;;;6.49;100.00
11339;BME280;5724;42.684;23.252;2023-02-28T09:36:21;94960.22;;;6.49;100.00
11339;BME280;5724;42.684;23.252;2023-02-28T09:38:46;94953.19;;;6.48;100.00
11339;BME280;5724;42.684;23.252;2023-02-28T09:41:22;94951.41;;;6.43;100.00
11339;BME280;5724;42.684;23.252;2023-02-28T09:43:56;94952.41;;;6.47;100.00
11339;BME280;5724;42.684;23.252;2023-02-28T09:46:34;94942.84;;;6.67;100.00
11339;BME280;5724;42.684;23.252;2023-02-28T09:49:05;94953.69;;;6.93;100.00
11339;BME280;5724;42.684;23.252;2023-02-28T09:51:43;94950.66;;;6.86;100.00
11339;BME280;5724;42.684;23.252;2023-02-28T09:54:14;94939.47;;;6.79;100.00
11339;BME280;5724;42.684;23.252;2023-02-28T09:56:47;94945.69;;;6.71;100.00
11339;BME280;5724;42.684;23.252;2023-02-28T09:59:29;94949.88;;;6.85;100.00
11339;BME280;5724;42.684;23.252;2023-02-28T10:09:51;94939.69;;;7.46;100.00
11339;BME280;5724;42.684;23.252;2023-02-28T10:12:19;94925.75;;;7.57;100.00
11339;BME280;5724;42.684;23.252;2023-02-28T10:14:47;94923.63;;;7.62;100.00
11339;BME280;5724;42.684;23.252;2023-02-28T10:17:17;94931.53;;;7.93;100.00
11339;BME280;5724;42.684;23.252;2023-02-28T10:23:20;94924.16;;;8.23;100.00
11339;BME280;5724;42.684;23.252;2023-02-28T10:26:13;94915.53;;;8.21;100.00
11339;BME280;5724;42.684;23.252;2023-02-28T10:28:39;94914.13;;;8.45;100.00
11339;BME280;5724;42.684;23.252;2023-02-28T10:31:04;94905.16;;;8.65;100.00
11339;BME280;5724;42.684;23.252;2023-02-28T10:33:32;94909.06;;;8.76;100.00
11339;BME280;5724;42.684;23.252;2023-02-28T10:36:00;94909.34;;;8.83;100.00
11339;BME280;5724;42.684;23.252;2023-02-28T10:38:31;94898.66;;;9.11;100.00
11339;BME280;5724;42.684;23.252;2023-02-28T10:41:16;94893.00;;;9.16;100.00
11339;BME280;5724;42.684;23.252;2023-02-28T10:43:43;94891.69;;;9.35;100.00
11339;BME280;5724;42.684;23.252;2023-02-28T10:48:50;94876.06;;;9.68;100.00
11339;BME280;5724;42.684;23.252;2023-02-28T10:51:22;94871.28;;;9.90;100.00
11339;BME280;5724;42.684;23.252;2023-02-28T10:53:50;94867.66;;;10.10;100.00
11339;BME280;5724;42.684;23.252;2023-02-28T10:56:21;94869.00;;;10.41;100.00
11339;BME280;5724;42.684;23.252;2023-02-28T10:59:00;94850.06;;;10.60;98.48
11339;BME280;5724;42.684;23.252;2023-02-28T11:03:57;94846.84;;;10.98;94.01
11339;BME280;5724;42.684;23.252;2023-02-28T11:06:28;94852.34;;;11.14;91.76
11339;BME280;5724;42.684;23.252;2023-02-28T11:09:00;94853.00;;;11.23;90.74
11339;BME280;5724;42.684;23.252;2023-02-28T11:11:29;94844.28;;;11.33;89.06
11339;BME280;5724;42.684;23.252;2023-02-28T11:14:04;94845.16;;;11.37;88.43
11339;BME280;5724;42.684;23.252;2023-02-28T11:16:35;94832.38;;;11.41;87.88
11339;BME280;5724;42.684;23.252;2023-02-28T11:19:03;94846.25;;;11.49;86.48
11339;BME280;5724;42.684;23.252;2023-02-28T11:21:36;94842.63;;;11.60;86.50
11339;BME280;5724;42.684;23.252;2023-02-28T11:26:47;94830.28;;;11.82;85.17
11339;BME280;5724;42.684;23.252;2023-02-28T11:29:20;94838.38;;;11.94;84.14
11339;BME280;5724;42.684;23.252;2023-02-28T11:34:37;94832.88;;;12.26;82.85
11339;BME280;5724;42.684;23.252;2023-02-28T11:37:04;94834.47;;;12.27;82.19
11339;BME280;5724;42.684;23.252;2023-02-28T11:39:31;94822.03;;;12.33;82.44
11339;BME280;5724;42.684;23.252;2023-02-28T11:47:33;94817.75;;;12.51;80.04
11339;BME280;5724;42.684;23.252;2023-02-28T11:55:39;94834.34;;;12.58;79.27
11339;BME280;5724;42.684;23.252;2023-02-28T11:58:20;94825.25;;;12.74;79.58
11339;BME280;5724;42.684;23.252;2023-02-28T12:03:42;94828.47;;;12.76;78.58
11339;BME280;5724;42.684;23.252;2023-02-28T12:06:36;94829.66;;;12.59;79.02
11339;BME280;5724;42.684;23.252;2023-02-28T12:11:55;94815.44;;;12.53;79.68
11339;BME280;5724;42.684;23.252;2023-02-28T12:22:31;94815.50;;;12.38;77.83
11339;BME280;5724;42.684;23.252;2023-02-28T12:27:37;94801.25;;;12.13;80.12
11339;BME280;5724;42.684;23.252;2023-02-28T12:30:17;94804.59;;;12.22;80.47
11339;BME280;5724;42.684;23.252;2023-02-28T12:32:48;94811.66;;;12.23;80.45
11339;BME280;5724;42.684;23.252;2023-02-28T12:35:23;94807.34;;;12.41;79.75
11339;BME280;5724;42.684;23.252;2023-02-28T12:37:55;94805.13;;;12.47;80.67
11339;BME280;5724;42.684;23.252;2023-02-28T12:40:26;94814.44;;;12.61;80.22
11339;BME280;5724;42.684;23.252;2023-02-28T12:42:56;94817.03;;;12.54;77.97
11339;BME280;5724;42.684;23.252;2023-02-28T12:45:27;94812.47;;;12.43;77.06
11339;BME280;5724;42.684;23.252;2023-02-28T12:48:00;94808.72;;;12.31;77.00
11339;BME280;5724;42.684;23.252;2023-02-28T12:50:27;94799.31;;;12.13;77.85
11339;BME280;5724;42.684;23.252;2023-02-28T12:53:17;94805.44;;;12.07;78.68
11339;BME280;5724;42.684;23.252;2023-02-28T12:55:54;94794.34;;;12.19;80.00
11339;BME280;5724;42.684;23.252;2023-02-28T13:09:37;94793.59;;;12.38;78.19
11339;BME280;5724;42.684;23.252;2023-02-28T13:12:12;94795.66;;;12.44;77.31
11339;BME280;5724;42.684;23.252;2023-02-28T13:14:38;94797.81;;;12.35;76.70
11339;BME280;5724;42.684;23.252;2023-02-28T13:19:35;94796.13;;;12.11;76.63
11339;BME280;5724;42.684;23.252;2023-02-28T13:22:01;94794.06;;;11.89;76.31
11339;BME280;5724;42.684;23.252;2023-02-28T13:24:43;94778.31;;;11.86;76.85
11339;BME280;5724;42.684;23.252;2023-02-28T13:29:39;94779.25;;;11.58;78.77
11339;BME280;5724;42.684;23.252;2023-02-28T13:35:33;94777.22;;;12.06;80.09
11339;BME280;5724;42.684;23.252;2023-02-28T13:40:14;94784.75;;;12.09;76.86
11339;BME280;5724;42.684;23.252;2023-02-28T13:42:51;94784.06;;;11.96;78.93
11339;BME280;5724;42.684;23.252;2023-02-28T13:48:01;94771.97;;;11.97;78.51
11339;BME280;5724;42.684;23.252;2023-02-28T13:50:35;94770.09;;;12.01;78.38
11339;BME280;5724;42.684;23.252;2023-02-28T13:55:48;94754.56;;;12.25;78.19
11339;BME280;5724;42.684;23.252;2023-02-28T14:06:34;94756.97;;;11.91;76.25
11339;BME280;5724;42.684;23.252;2023-02-28T14:09:03;94768.34;;;11.93;76.48
11339;BME280;5724;42.684;23.252;2023-02-28T14:11:36;94766.41;;;11.78;78.13
11339;BME280;5724;42.684;23.252;2023-02-28T14:14:05;94757.31;;;11.90;78.09
11339;BME280;5724;42.684;23.252;2023-02-28T14:16:45;94764.56;;;11.82;77.85
11339;BME280;5724;42.684;23.252;2023-02-28T14:19:15;94764.38;;;11.75;78.28
11339;BME280;5724;42.684;23.252;2023-02-28T14:34:54;94758.50;;;11.41;79.10
11339;BME280;5724;42.684;23.252;2023-02-28T14:37:42;94764.94;;;11.33;79.07
11339;BME280;5724;42.684;23.252;2023-02-28T14:40:15;94757.06;;;11.16;79.95
11339;BME280;5724;42.684;23.252;2023-02-28T14:42:46;94757.50;;;11.02;80.78
11339;BME280;5724;42.684;23.252;2023-02-28T14:45:20;94741.75;;;10.68;81.54
11339;BME280;5724;42.684;23.252;2023-02-28T14:47:47;94752.44;;;10.73;82.61
11339;BME280;5724;42.684;23.252;2023-02-28T14:50:22;94752.03;;;10.58;82.87
11339;BME280;5724;42.684;23.252;2023-02-28T14:52:53;94753.78;;;10.51;83.12
11339;BME280;5724;42.684;23.252;2023-02-28T14:55:25;94746.88;;;10.41;83.54
11339;BME280;5724;42.684;23.252;2023-02-28T14:57:55;94756.13;;;10.37;83.54
11339;BME280;5724;42.684;23.252;2023-02-28T15:00:31;94754.41;;;10.32;85.03
11339;BME280;5724;42.684;23.252;2023-02-28T15:02:59;94734.63;;;10.23;85.55
11339;BME280;5724;42.684;23.252;2023-02-28T15:05:33;94763.31;;;10.17;86.41
11339;BME280;5724;42.684;23.252;2023-02-28T15:08:14;94736.63;;;9.98;86.96
11339;BME280;5724;42.684;23.252;2023-02-28T15:10:43;94750.03;;;10.03;87.14
11339;BME280;5724;42.684;23.252;2023-02-28T15:13:14;94751.88;;;9.99;87.01
11339;BME280;5724;42.684;23.252;2023-02-28T15:15:45;94744.81;;;9.98;87.56
11339;BME280;5724;42.684;23.252;2023-02-28T15:21:05;94727.59;;;9.69;88.48
11339;BME280;5724;42.684;23.252;2023-02-28T15:23:32;94743.97;;;9.69;88.35
11339;BME280;5724;42.684;23.252;2023-02-28T15:25:59;94740.66;;;9.64;89.26
11339;BME280;5724;42.684;23.252;2023-02-28T15:28:25;94761.50;;;9.56;89.54
11339;BME280;5724;42.684;23.252;2023-02-28T15:30:57;94749.66;;;9.40;90.15
11339;BME280;5724;42.684;23.252;2023-02-28T15:33:25;94748.28;;;9.34;90.29